Time;durP1;ratioP1;P1;durP2;ratioP2;P2;SDS_P1;SDS_P2;PMS_P1;PMS_P2;Temp;Humidity;BMP_temperature;BMP_pressure;BME280_temperature;BME280_humidity;BME280_pressure;Samples;Min_cycle;Max_cycle;Signal;HPM_P1;HPM_P2
2022/04/28 00:01:23;;;;;;;2.25;1.10;;;;;;;18.83;44.69;102928.31;5102547;28;20051;-51
2022/04/28 00:03:48;;;;;;;1.20;0.90;;;;;;;18.83;44.70;102932.84;5085877;28;20066;-50
2022/04/28 00:06:14;;;;;;;1.70;1.10;;;;;;;18.72;44.69;102918.34;5103992;28;20027;-50
2022/04/28 00:08:39;;;;;;;2.53;1.05;;;;;;;18.83;44.83;102940.94;5102395;28;20027;-47
2022/04/28 00:11:05;;;;;;;1.23;1.00;;;;;;;18.82;44.74;102936.50;5103148;28;20089;-48
2022/04/28 00:13:30;;;;;;;1.45;1.10;;;;;;;18.72;44.50;102936.34;5103400;28;20024;-47
2022/04/28 00:15:55;;;;;;;1.60;0.82;;;;;;;18.79;44.51;102936.75;5102740;28;20031;-48
2022/04/28 00:18:21;;;;;;;1.10;0.90;;;;;;;18.81;44.73;102937.47;5103954;28;20020;-48
2022/04/28 00:20:46;;;;;;;1.25;1.15;;;;;;;18.80;44.35;102935.75;5101040;28;20073;-47
2022/04/28 00:23:11;;;;;;;1.45;1.17;;;;;;;18.78;44.59;102938.59;5101251;28;20028;-46
2022/04/28 00:25:36;;;;;;;1.33;1.10;;;;;;;18.75;44.34;102930.72;5102229;28;20046;-47
2022/04/28 00:28:01;;;;;;;1.10;1.00;;;;;;;18.79;44.53;102939.44;5102898;28;20019;-48
2022/04/28 00:30:27;;;;;;;1.20;1.05;;;;;;;18.79;44.33;102953.78;5099631;28;20033;-50
2022/04/28 00:32:52;;;;;;;1.25;1.10;;;;;;;18.77;44.66;102950.31;5083219;28;20035;-49
2022/04/28 00:35:18;;;;;;;1.83;1.33;;;;;;;18.77;44.47;102944.94;5083485;28;20020;-51
2022/04/28 00:37:43;;;;;;;1.15;1.05;;;;;;;18.78;44.20;102945.81;5083857;28;20031;-48
2022/04/28 00:40:09;;;;;;;1.20;1.05;;;;;;;18.77;44.26;102949.47;5103373;28;20020;-47
2022/04/28 00:42:34;;;;;;;1.73;1.15;;;;;;;18.76;44.12;102950.44;5139421;28;20043;-48
2022/04/28 00:44:59;;;;;;;1.10;1.00;;;;;;;18.76;44.13;102947.75;5144510;28;20094;-47
2022/04/28 00:50:38;;;;;;;2.35;1.10;;;;;;;18.75;44.18;102952.28;5144601;28;20020;-46
2022/04/28 00:52:56;;;;;;;1.02;0.77;;;;;;;18.73;44.22;102932.66;5144256;28;20045;-52
2022/04/28 00:55:22;;;;;;;1.10;0.90;;;;;;;18.71;44.03;102953.50;5144088;28;20106;-47
2022/04/28 00:57:47;;;;;;;1.10;1.00;;;;;;;18.73;44.03;102956.91;5124678;28;20037;-48
2022/04/28 01:00:13;;;;;;;1.02;0.90;;;;;;;18.72;44.00;102947.97;5144465;28;20038;-46
2022/04/28 01:02:39;;;;;;;0.90;0.90;;;;;;;18.69;43.99;102945.53;5144107;28;20038;-49
2022/04/28 01:05:04;;;;;;;1.25;0.95;;;;;;;18.72;43.84;102949.81;5126318;28;20035;-51
2022/04/28 01:07:29;;;;;;;1.05;0.85;;;;;;;18.69;44.07;102959.03;5125728;28;20026;-48
2022/04/28 01:09:55;;;;;;;1.30;1.00;;;;;;;18.70;44.01;102949.09;5125865;28;20023;-49
2022/04/28 01:12:21;;;;;;;0.93;0.93;;;;;;;18.69;43.84;102950.94;5125194;28;20054;-49
2022/04/28 01:14:46;;;;;;;1.27;1.13;;;;;;;18.69;43.99;102955.41;5143861;28;20022;-48
2022/04/28 01:17:12;;;;;;;0.80;0.80;;;;;;;18.68;43.94;102959.94;5125500;28;20019;-50
2022/04/28 01:19:38;;;;;;;1.58;1.00;;;;;;;18.67;43.57;102949.28;5108389;28;20445;-49
2022/04/28 01:22:04;;;;;;;1.10;0.90;;;;;;;18.68;43.52;102953.69;5125597;27;20047;-47
2022/04/28 01:24:31;;;;;;;1.48;1.00;;;;;;;18.68;43.86;102951.00;5147391;27;20023;-52
2022/04/28 01:26:58;;;;;;;1.58;1.10;;;;;;;18.58;43.67;102939.22;5147561;27;20019;-50
2022/04/28 01:29:23;;;;;;;1.10;1.00;;;;;;;18.66;43.68;102955.66;5128954;27;20030;-53
2022/04/28 01:31:49;;;;;;;0.80;0.80;;;;;;;18.65;43.66;102954.81;5129374;27;20023;-52
2022/04/28 01:34:14;;;;;;;1.63;0.90;;;;;;;18.65;43.61;102951.25;5147806;27;20088;-52
2022/04/28 01:36:39;;;;;;;1.10;0.90;;;;;;;18.64;43.83;102955.75;5129323;27;20038;-51
2022/04/28 01:39:06;;;;;;;1.05;0.85;;;;;;;18.63;43.57;102954.06;5133287;27;20031;-52
2022/04/28 01:41:32;;;;;;;1.70;1.00;;;;;;;18.63;43.62;102947.81;5111075;27;20058;-49
2022/04/28 01:43:57;;;;;;;1.15;1.05;;;;;;;18.61;43.43;102952.47;5128489;27;20042;-49
2022/04/28 01:46:22;;;;;;;0.80;0.80;;;;;;;18.61;43.54;102956.00;5147306;27;20112;-49
2022/04/28 01:48:48;;;;;;;1.25;0.90;;;;;;;18.49;43.58;102933.56;5147557;27;20027;-51
2022/04/28 01:56:41;;;;;;;1.08;1.00;;;;;;;18.58;43.28;102948.16;5147272;27;20151;-49
2022/04/28 01:59:07;;;;;;;1.20;1.00;;;;;;;18.58;43.28;102947.31;5146656;27;20027;-48
2022/04/28 02:01:32;;;;;;;1.42;0.95;;;;;;;18.57;43.43;102949.16;5147227;27;20023;-46
2022/04/28 02:03:57;;;;;;;1.10;1.00;;;;;;;18.56;43.61;102944.69;5145874;27;20030;-47
2022/04/28 02:06:22;;;;;;;1.27;0.90;;;;;;;18.56;43.29;102952.78;5146014;27;20086;-50
2022/04/28 02:08:48;;;;;;;1.05;0.80;;;;;;;18.55;43.40;102950.22;5146409;27;20572;-50
2022/04/28 02:11:13;;;;;;;1.15;0.98;;;;;;;18.55;43.25;102950.22;5127955;27;20031;-48
2022/04/28 02:13:39;;;;;;;1.00;0.80;;;;;;;18.54;43.35;102949.38;5146380;27;20015;-50
2022/04/28 02:16:04;;;;;;;0.98;0.90;;;;;;;18.54;43.50;102956.59;5147027;27;20106;-49
2022/04/28 02:18:29;;;;;;;1.00;0.90;;;;;;;18.52;43.05;102948.63;5128494;27;20106;-46
2022/04/28 02:20:54;;;;;;;1.17;0.95;;;;;;;18.52;43.10;102951.34;5146525;27;20499;-47
2022/04/28 02:23:20;;;;;;;1.02;0.93;;;;;;;18.52;42.98;102951.34;5127828;27;20656;-48
2022/04/28 02:25:45;;;;;;;1.00;0.80;;;;;;;18.50;43.36;102953.25;5146655;27;20019;-48
2022/04/28 02:28:10;;;;;;;1.60;1.00;;;;;;;18.48;43.00;102956.09;5146062;27;20376;-51
2022/04/28 02:30:35;;;;;;;1.33;1.00;;;;;;;18.49;43.27;102962.34;5146791;27;20387;-50
2022/04/28 02:33:09;;;;;;;1.27;1.00;;;;;;;18.48;43.15;102955.22;5146347;27;20497;-50
2022/04/28 02:35:35;;;;;;;1.13;1.00;;;;;;;18.48;43.06;102957.94;5128262;27;20027;-51
2022/04/28 02:38:01;;;;;;;1.10;1.00;;;;;;;18.47;42.80;102956.19;5145780;27;20075;-46
2022/04/28 02:40:27;;;;;;;1.05;0.98;;;;;;;18.46;43.19;102960.72;5146045;27;20031;-50
2022/04/28 02:42:53;;;;;;;0.98;0.90;;;;;;;18.45;42.87;102956.31;5126840;27;20081;-51
2022/04/28 02:45:18;;;;;;;1.15;0.95;;;;;;;18.43;42.81;102952.84;5146483;27;20027;-47
2022/04/28 02:47:44;;;;;;;1.35;1.00;;;;;;;18.44;43.14;102961.81;5145405;27;20114;-50
2022/04/28 02:50:12;;;;;;;0.80;0.80;;;;;;;18.43;42.77;102960.09;5127837;27;20109;-49
2022/04/28 02:52:38;;;;;;;1.43;0.90;;;;;;;18.42;43.25;102959.22;5139423;27;20023;-50
2022/04/28 02:55:04;;;;;;;1.40;1.05;;;;;;;18.41;42.88;102952.13;5125797;28;20061;-52
2022/04/28 02:57:29;;;;;;;0.90;0.80;;;;;;;18.41;43.02;102953.97;5125297;28;20032;-51
2022/04/28 02:59:54;;;;;;;1.23;0.90;;;;;;;18.40;42.93;102963.88;5125399;28;20076;-48
2022/04/28 03:02:19;;;;;;;1.15;0.80;;;;;;;18.37;43.04;102961.41;5125151;28;20043;-47
2022/04/28 03:04:44;;;;;;;1.50;1.17;;;;;;;18.38;42.80;102962.28;5125549;28;20020;-47
2022/04/28 03:12:38;;;;;;;1.13;0.90;;;;;;;18.36;42.79;102956.16;5144826;27;20134;-50
2022/04/28 03:15:05;;;;;;;0.98;0.88;;;;;;;18.34;42.72;102953.56;5145901;27;20529;-51
2022/04/28 03:17:30;;;;;;;0.75;0.75;;;;;;;18.18;42.84;102932.31;5127350;27;20064;-48
2022/04/28 03:19:56;;;;;;;1.20;0.90;;;;;;;18.34;42.71;102960.78;5145915;27;20023;-49
2022/04/28 03:22:21;;;;;;;1.10;0.93;;;;;;;18.34;42.81;102966.16;5145626;27;20441;-46
2022/04/28 03:24:46;;;;;;;1.30;1.00;;;;;;;18.32;42.78;102963.59;5127340;27;20479;-49
2022/04/28 03:27:12;;;;;;;0.88;0.88;;;;;;;18.32;42.69;102970.81;5109826;27;20023;-46
2022/04/28 03:29:37;;;;;;;0.90;0.90;;;;;;;18.33;42.65;102967.16;5126500;27;20019;-49
2022/04/28 03:32:03;;;;;;;0.80;0.80;;;;;;;18.32;42.80;102968.97;5145390;27;20113;-45
2022/04/28 03:34:28;;;;;;;1.08;0.90;;;;;;;18.32;42.78;102960.06;5145644;27;20027;-47
2022/04/28 03:36:53;;;;;;;0.82;0.82;;;;;;;18.29;42.51;102966.50;5145360;27;20022;-46
2022/04/28 03:39:19;;;;;;;1.10;1.00;;;;;;;18.29;42.57;102969.22;5126078;27;20083;-48
2022/04/28 03:41:44;;;;;;;1.63;1.10;;;;;;;18.29;42.40;102965.66;5126332;27;20076;-46
2022/04/28 03:44:10;;;;;;;1.58;1.33;;;;;;;18.27;42.50;102963.09;5126360;27;20048;-47
2022/04/28 03:46:35;;;;;;;0.80;0.80;;;;;;;18.28;42.70;102969.34;5142597;27;20034;-48
2022/04/28 03:49:01;;;;;;;1.27;0.90;;;;;;;18.26;42.44;102966.72;5143952;27;20034;-47
2022/04/28 03:51:27;;;;;;;1.27;1.00;;;;;;;18.24;42.58;102958.78;5143785;27;20889;-49
2022/04/28 03:53:53;;;;;;;1.40;1.00;;;;;;;18.25;42.53;102965.03;5144877;27;20026;-46
2022/04/28 03:56:18;;;;;;;1.58;1.48;;;;;;;18.23;42.59;102958.91;5143498;27;20030;-47
2022/04/28 03:58:45;;;;;;;0.90;0.90;;;;;;;18.23;42.61;102959.75;5144426;27;20035;-46
2022/04/28 04:01:10;;;;;;;1.25;0.98;;;;;;;18.19;42.52;102952.03;5143951;27;20061;-46
2022/04/28 04:03:35;;;;;;;1.13;1.02;;;;;;;18.21;42.40;102959.00;5126540;27;20019;-46
2022/04/28 04:06:00;;;;;;;0.98;0.88;;;;;;;18.11;42.52;102939.13;5143164;27;20091;-47
2022/04/28 04:08:26;;;;;;;0.88;0.80;;;;;;;18.11;42.30;102941.81;5144502;27;20026;-47
2022/04/28 04:10:51;;;;;;;0.90;0.90;;;;;;;18.20;42.46;102967.19;5126105;27;20031;-48
2022/04/28 04:13:16;;;;;;;1.38;1.15;;;;;;;18.10;42.29;102955.41;5125204;27;20031;-46
2022/04/28 04:15:42;;;;;;;1.25;0.90;;;;;;;18.18;42.37;102964.63;5125803;27;20038;-46
2022/04/28 04:18:08;;;;;;;0.68;0.68;;;;;;;18.18;42.37;102963.75;5105691;28;20035;-47
2022/04/28 04:20:34;;;;;;;0.98;0.90;;;;;;;18.07;42.26;102950.25;5144341;27;20134;-48
2022/04/28 04:22:59;;;;;;;0.85;0.85;;;;;;;18.17;42.39;102965.59;5114311;28;20055;-50
2022/04/28 04:25:25;;;;;;;1.33;1.00;;;;;;;18.15;42.42;102967.53;5124290;28;20028;-49
2022/04/28 04:27:51;;;;;;;0.98;0.90;;;;;;;18.15;42.35;102978.31;5125964;28;20974;-51
2022/04/28 04:33:00;;;;;;;1.05;0.80;;;;;;;18.02;42.38;102966.72;5128517;28;20030;-50
2022/04/28 04:35:25;;;;;;;2.03;1.15;;;;;;;18.14;42.66;102982.00;5141693;28;20110;-45
2022/04/28 04:37:54;;;;;;;1.52;0.98;;;;;;;18.00;42.42;102965.97;5125157;28;20042;-46
2022/04/28 04:40:20;;;;;;;0.98;0.98;;;;;;;18.12;42.42;102992.00;5120376;28;20019;-46
2022/04/28 04:42:45;;;;;;;0.90;0.85;;;;;;;18.12;42.22;102996.53;5138037;28;20071;-46
2022/04/28 04:45:11;;;;;;;0.98;0.90;;;;;;;17.99;42.35;102975.03;5142549;28;20043;-48
2022/04/28 04:47:36;;;;;;;1.10;0.75;;;;;;;18.11;42.24;102989.44;5119602;28;20016;-46
2022/04/28 04:50:03;;;;;;;0.80;0.80;;;;;;;18.09;42.43;102992.22;5115940;28;20019;-50
2022/04/28 04:52:28;;;;;;;1.75;0.90;;;;;;;17.99;42.24;102985.78;5115903;28;20076;-48
2022/04/28 04:54:53;;;;;;;0.82;0.82;;;;;;;18.00;42.55;102995.59;5135285;28;20126;-48
2022/04/28 04:57:19;;;;;;;1.05;1.02;;;;;;;18.10;42.46;103006.56;5103957;28;20054;-51
2022/04/28 04:59:44;;;;;;;1.13;0.90;;;;;;;18.10;42.44;103014.63;5107267;27;20035;-46
2022/04/28 05:02:09;;;;;;;0.70;0.70;;;;;;;17.98;42.39;102995.72;5127561;27;20027;-51
2022/04/28 05:04:34;;;;;;;1.60;1.02;;;;;;;18.09;42.57;103013.75;5141680;27;20108;-46
2022/04/28 05:07:00;;;;;;;1.10;1.00;;;;;;;18.09;42.41;103015.59;5123467;27;20019;-50
2022/04/28 05:09:26;;;;;;;0.77;0.77;;;;;;;18.08;42.46;103013.88;5145092;27;20019;-46
2022/04/28 05:11:51;;;;;;;0.90;0.80;;;;;;;17.96;42.64;103003.00;5143029;27;20019;-48
2022/04/28 05:14:16;;;;;;;1.20;0.80;;;;;;;18.08;42.42;103019.25;5121527;27;20028;-49
2022/04/28 05:16:42;;;;;;;0.80;0.80;;;;;;;18.07;42.54;103020.22;5125860;27;20037;-48
2022/04/28 05:19:07;;;;;;;1.27;0.90;;;;;;;18.07;42.17;103023.78;5140328;27;20030;-48
2022/04/28 05:21:32;;;;;;;0.90;0.90;;;;;;;18.07;42.54;103015.72;5144244;27;20015;-49
2022/04/28 05:23:57;;;;;;;1.27;1.00;;;;;;;18.06;42.12;103029.28;5126301;27;20031;-49
2022/04/28 05:26:23;;;;;;;1.38;0.80;;;;;;;18.06;42.43;103029.28;5143609;27;20688;-56
2022/04/28 05:28:48;;;;;;;0.93;0.80;;;;;;;18.04;42.37;103026.69;5144861;27;20468;-54
2022/04/28 05:31:13;;;;;;;1.00;0.85;;;;;;;18.06;42.30;103034.69;5144803;27;20442;-53
2022/04/28 05:33:41;;;;;;;0.77;0.77;;;;;;;18.06;42.70;103034.69;5110083;27;20068;-53
2022/04/28 05:36:09;;;;;;;0.68;0.68;;;;;;;18.02;42.40;103031.34;5144383;27;20019;-53
2022/04/28 05:38:35;;;;;;;1.75;0.70;;;;;;;18.03;42.64;103038.44;5125405;27;20019;-52
2022/04/28 05:41:02;;;;;;;2.05;1.10;;;;;;;17.93;42.53;103016.72;5126435;27;20058;-52
2022/04/28 05:46:11;;;;;;;1.00;1.00;;;;;;;18.03;42.77;103035.75;5125893;27;20042;-51
2022/04/28 05:48:36;;;;;;;0.88;0.70;;;;;;;17.90;42.53;103016.94;5145331;27;20019;-51
2022/04/28 05:51:02;;;;;;;0.80;0.80;;;;;;;18.03;42.61;103043.81;5121772;27;20027;-50
2022/04/28 05:53:27;;;;;;;1.00;1.00;;;;;;;17.94;42.50;103034.56;5125068;27;20087;-52
2022/04/28 05:55:52;;;;;;;1.10;1.00;;;;;;;18.04;42.75;103047.38;5125929;27;21044;-53
2022/04/28 05:58:17;;;;;;;0.98;0.80;;;;;;;18.03;42.87;103054.59;5126115;27;20072;-51
2022/04/28 06:00:43;;;;;;;1.23;0.90;;;;;;;17.92;42.97;103033.81;5145131;27;20015;-51
2022/04/28 06:03:08;;;;;;;1.38;0.90;;;;;;;17.94;43.10;103039.09;5126623;27;20157;-54
2022/04/28 06:05:33;;;;;;;1.67;1.00;;;;;;;18.04;42.99;103059.00;5145167;27;20061;-53
2022/04/28 06:07:58;;;;;;;1.48;1.02;;;;;;;18.04;43.16;103055.44;5126300;27;20023;-49
2022/04/28 06:10:24;;;;;;;1.15;1.05;;;;;;;18.04;42.98;103059.00;5144252;27;20046;-52
2022/04/28 06:12:49;;;;;;;2.13;0.88;;;;;;;17.94;43.22;103036.41;5126147;27;20423;-48
2022/04/28 06:15:14;;;;;;;0.80;0.80;;;;;;;18.04;43.10;103050.06;5127250;27;20034;-54
2022/04/28 06:17:40;;;;;;;1.42;1.00;;;;;;;17.94;43.15;103041.78;5121224;27;20611;-48
2022/04/28 06:20:05;;;;;;;1.17;0.75;;;;;;;17.96;43.40;103042.53;5141655;27;20035;-47
2022/04/28 06:22:31;;;;;;;1.30;1.20;;;;;;;17.98;43.33;103052.22;5144507;27;20095;-47
2022/04/28 06:24:58;;;;;;;1.58;1.00;;;;;;;18.07;43.22;103063.31;5144789;27;20019;-46
2022/04/28 06:27:23;;;;;;;0.80;0.80;;;;;;;18.07;43.15;103069.53;5142950;27;20046;-45
2022/04/28 06:29:49;;;;;;;1.20;1.05;;;;;;;18.08;43.24;103081.16;5126128;27;20046;-47
2022/04/28 06:32:18;;;;;;;1.02;0.93;;;;;;;18.08;43.31;103075.78;5126096;27;20023;-47
2022/04/28 06:34:44;;;;;;;0.90;0.90;;;;;;;18.08;43.10;103090.09;5126193;27;20038;-45
2022/04/28 06:37:10;;;;;;;0.93;0.82;;;;;;;17.97;43.21;103077.44;5143853;27;20090;-50
2022/04/28 06:39:35;;;;;;;1.83;1.13;;;;;;;18.08;43.00;103100.88;5144321;27;20051;-51
2022/04/28 06:42:01;;;;;;;1.00;0.90;;;;;;;17.97;43.27;103080.13;5143723;27;20058;-49
2022/04/28 06:44:26;;;;;;;1.73;1.27;;;;;;;18.08;43.23;103103.56;5125429;27;20031;-52
2022/04/28 06:46:51;;;;;;;1.05;0.98;;;;;;;18.10;43.16;103108.84;5143711;27;20027;-53
2022/04/28 06:49:16;;;;;;;1.13;0.90;;;;;;;18.11;42.86;103107.88;5143953;27;20078;-48
2022/04/28 06:51:42;;;;;;;0.85;0.85;;;;;;;18.02;43.20;103085.16;5125763;27;20067;-53
2022/04/28 06:54:08;;;;;;;1.05;0.95;;;;;;;18.11;42.98;103095.28;5143714;27;20023;-50
2022/04/28 06:56:34;;;;;;;1.35;1.20;;;;;;;18.14;43.36;103107.66;5138738;27;20027;-54
2022/04/28 06:58:59;;;;;;;1.98;1.23;;;;;;;18.14;42.91;103102.28;5141182;27;20023;-55
2022/04/28 07:01:24;;;;;;;1.13;0.80;;;;;;;18.14;42.85;103104.97;5124685;27;20023;-52
2022/04/28 07:03:49;;;;;;;0.90;0.90;;;;;;;18.04;42.88;103085.06;5125111;27;20031;-54
2022/04/28 07:06:15;;;;;;;1.05;1.00;;;;;;;18.17;42.89;103112.81;5124708;27;20023;-52
2022/04/28 07:08:40;;;;;;;1.08;0.95;;;;;;;18.07;42.94;103092.91;5123430;27;20379;-54
2022/04/28 07:11:05;;;;;;;1.33;1.00;;;;;;;18.17;42.76;103112.81;5143110;27;20102;-51
2022/04/28 07:13:31;;;;;;;1.98;1.17;;;;;;;18.17;42.76;103113.66;5140414;27;20034;-53
2022/04/28 07:15:56;;;;;;;2.28;0.90;;;;;;;18.08;42.99;103092.78;5142595;27;20692;-52
2022/04/28 07:18:22;;;;;;;1.98;1.00;;;;;;;18.06;42.95;103092.06;5125011;27;20035;-47
2022/04/28 07:20:47;;;;;;;1.15;1.00;;;;;;;18.16;42.76;103103.88;5142129;27;20027;-45
2022/04/28 07:23:12;;;;;;;2.25;1.30;;;;;;;18.18;42.90;103101.06;5118241;27;20062;-45
2022/04/28 07:25:39;;;;;;;1.17;1.00;;;;;;;18.18;42.92;103106.44;5123413;27;20029;-45
2022/04/28 07:28:04;;;;;;;1.10;0.98;;;;;;;18.09;42.68;103099.88;5121857;27;20019;-49
2022/04/28 07:30:29;;;;;;;1.65;1.02;;;;;;;18.17;42.62;103116.34;5142776;27;20023;-47
2022/04/28 07:32:55;;;;;;;1.02;0.90;;;;;;;18.17;42.68;103119.06;5124620;27;20081;-45
2022/04/28 07:35:23;;;;;;;2.28;1.45;;;;;;;18.15;42.94;103121.00;5123840;27;20704;-47
2022/04/28 07:37:48;;;;;;;1.75;1.00;;;;;;;18.06;42.91;103110.91;5135542;27;20024;-44
2022/04/28 07:40:13;;;;;;;1.20;0.80;;;;;;;18.07;42.88;103109.06;5121642;27;20031;-47
2022/04/28 07:42:40;;;;;;;1.42;0.90;;;;;;;18.16;42.59;103121.88;5141538;27;20179;-46
2022/04/28 07:45:06;;;;;;;1.20;0.80;;;;;;;18.16;42.70;103120.03;5122135;27;20050;-48
2022/04/28 07:47:31;;;;;;;1.10;1.00;;;;;;;18.15;42.60;103128.22;5141099;27;20616;-46
2022/04/28 07:49:57;;;;;;;1.30;0.95;;;;;;;18.04;42.96;103111.97;5123128;27;20019;-47
2022/04/28 07:52:23;;;;;;;2.13;1.10;;;;;;;18.13;42.79;103125.63;5123045;27;20384;-47
2022/04/28 07:54:49;;;;;;;5.15;1.10;;;;;;;18.14;42.54;103131.91;5124109;27;20035;-45
2022/04/28 07:57:15;;;;;;;0.70;0.70;;;;;;;18.13;42.94;103132.84;5105365;27;20037;-47
2022/04/28 07:59:40;;;;;;;1.05;0.90;;;;;;;18.03;42.58;103118.34;5123750;27;20050;-43
2022/04/28 08:02:07;;;;;;;2.25;0.90;;;;;;;18.13;42.56;103138.22;5124364;27;20472;-47
2022/04/28 08:04:33;;;;;;;1.52;1.00;;;;;;;18.12;42.49;103140.06;5124423;27;20062;-46
2022/04/28 08:06:58;;;;;;;1.50;0.98;;;;;;;18.10;42.46;103136.63;5140652;27;20030;-44
2022/04/28 08:09:24;;;;;;;1.80;1.10;;;;;;;18.12;42.54;103145.44;5105991;27;20023;-45
2022/04/28 08:11:49;;;;;;;1.75;0.98;;;;;;;18.03;42.59;103135.34;5141606;27;20031;-46
2022/04/28 08:14:14;;;;;;;1.15;0.80;;;;;;;18.02;42.53;103130.94;5123418;27;20022;-43
2022/04/28 08:16:40;;;;;;;1.20;0.90;;;;;;;18.12;42.96;103147.28;5142063;27;20027;-45
2022/04/28 08:19:05;;;;;;;1.60;0.77;;;;;;;17.99;42.56;103123.91;5103441;27;20163;-46
2022/04/28 08:21:31;;;;;;;2.00;1.42;;;;;;;18.14;42.74;103148.06;5124360;27;20049;-44
2022/04/28 08:23:57;;;;;;;1.63;1.25;;;;;;;18.13;42.77;103139.09;5123809;27;20051;-44
2022/04/28 08:26:22;;;;;;;1.05;0.80;;;;;;;18.02;42.71;103132.78;5123443;28;20502;-45
2022/04/28 08:28:47;;;;;;;0.88;0.80;;;;;;;18.02;42.52;103128.25;5105877;28;20023;-50
2022/04/28 08:31:12;;;;;;;0.95;0.88;;;;;;;18.13;42.81;103146.31;5124107;28;20019;-46
2022/04/28 08:33:38;;;;;;;0.90;0.80;;;;;;;18.02;42.62;103130.06;5142422;27;20027;-44
2022/04/28 08:36:03;;;;;;;1.00;0.90;;;;;;;18.00;42.63;103130.16;5142276;28;20031;-44
2022/04/28 08:38:28;;;;;;;2.65;1.00;;;;;;;18.12;42.68;103148.13;5106489;28;20057;-44
2022/04/28 08:41:02;;;;;;;1.10;1.00;;;;;;;18.13;42.69;103149.00;5123847;28;20034;-46
2022/04/28 08:43:30;;;;;;;1.02;0.70;;;;;;;18.13;42.43;103155.25;5123378;28;20031;-46
2022/04/28 08:48:48;;;;;;;1.00;0.90;;;;;;;18.13;42.56;103147.16;5139695;28;20027;-44
2022/04/28 08:51:13;;;;;;;1.10;0.93;;;;;;;18.18;42.69;103154.91;5142311;28;20050;-45
2022/04/28 08:53:39;;;;;;;1.60;1.00;;;;;;;18.18;42.59;103157.59;5106807;28;20011;-45
2022/04/28 08:56:04;;;;;;;1.50;1.02;;;;;;;18.19;42.65;103165.59;5123177;28;20618;-44
2022/04/28 08:58:29;;;;;;;1.70;1.02;;;;;;;18.20;42.87;103158.38;5123029;28;21140;-44
2022/04/28 09:00:54;;;;;;;2.08;1.02;;;;;;;18.19;42.68;103160.22;5142161;28;20027;-45
2022/04/28 09:03:20;;;;;;;1.83;0.95;;;;;;;18.08;42.36;103152.03;5142098;28;20053;-45
2022/04/28 09:05:48;;;;;;;1.42;0.90;;;;;;;18.19;42.36;103162.91;5123732;28;20030;-43
2022/04/28 09:08:16;;;;;;;1.83;0.93;;;;;;;18.18;42.56;103163.88;5123166;28;20024;-46
2022/04/28 09:10:41;;;;;;;1.00;0.90;;;;;;;18.09;42.38;103158.25;5123986;28;20058;-46
2022/04/28 09:15:54;;;;;;;0.80;0.80;;;;;;;18.20;42.36;103174.53;5126421;28;20038;-46
2022/04/28 09:18:21;;;;;;;1.00;0.90;;;;;;;18.19;42.38;103173.66;5141996;28;20024;-46
2022/04/28 09:20:47;;;;;;;1.23;1.10;;;;;;;18.20;42.25;103163.75;5123870;28;20047;-44
2022/04/28 09:23:13;;;;;;;1.48;0.95;;;;;;;18.21;42.29;103163.63;5123235;28;20015;-47
2022/04/28 09:25:39;;;;;;;1.17;0.80;;;;;;;18.12;42.60;103142.75;5123336;28;20059;-44
2022/04/28 09:28:05;;;;;;;1.13;0.90;;;;;;;18.22;42.57;103162.69;5140605;28;20023;-45
2022/04/28 09:30:49;;;;;;;1.65;0.85;;;;;;;18.25;42.54;103150.81;5123554;28;20029;-43
2022/04/28 09:33:16;;;;;;;1.02;1.00;;;;;;;18.23;42.29;103147.38;5123717;28;20027;-45
2022/04/28 09:35:50;;;;;;;1.25;0.90;;;;;;;18.24;42.41;103149.09;5123648;28;20103;-44
2022/04/28 09:38:16;;;;;;;1.60;0.90;;;;;;;18.24;42.45;103147.28;5122584;28;20023;-43
2022/04/28 09:43:33;;;;;;;0.80;0.80;;;;;;;18.26;42.58;103144.44;5125571;27;20033;-47
2022/04/28 09:46:00;;;;;;;1.65;1.10;;;;;;;18.23;42.49;103144.69;5145071;27;20023;-51
2022/04/28 09:48:30;;;;;;;1.70;1.00;;;;;;;18.26;42.51;103141.75;5127075;27;20030;-51
2022/04/28 09:51:09;;;;;;;1.80;0.90;;;;;;;18.28;42.34;103147.91;5109834;27;20436;-46
2022/04/28 09:53:36;;;;;;;1.10;0.75;;;;;;;18.29;42.24;103154.16;5127064;27;20038;-48
2022/04/28 09:56:03;;;;;;;0.95;0.82;;;;;;;18.28;42.51;103147.06;5109596;27;20035;-44
2022/04/28 09:58:29;;;;;;;0.93;0.82;;;;;;;18.28;42.56;103150.59;5108733;27;20191;-46
2022/04/28 10:01:03;;;;;;;1.20;0.90;;;;;;;18.28;42.21;103144.38;5126850;27;20026;-45
2022/04/28 10:03:33;;;;;;;1.15;0.80;;;;;;;18.28;42.50;103137.16;5127023;27;20121;-47
2022/04/28 10:06:05;;;;;;;0.80;0.80;;;;;;;18.17;42.42;103120.88;5126550;27;20031;-44
2022/04/28 10:08:33;;;;;;;1.50;1.08;;;;;;;18.18;42.45;103120.78;5126780;27;20106;-44
2022/04/28 10:10:59;;;;;;;1.30;0.90;;;;;;;18.19;42.36;103125.19;5145442;27;20031;-47
2022/04/28 10:13:28;;;;;;;1.73;1.00;;;;;;;18.30;42.51;103131.63;5144240;27;20031;-43
2022/04/28 10:15:56;;;;;;;0.82;0.80;;;;;;;18.30;42.52;103135.19;5126846;27;20107;-45
2022/04/28 10:18:24;;;;;;;1.80;0.70;;;;;;;18.32;42.58;103135.09;5126563;27;20031;-44
2022/04/28 10:20:55;;;;;;;1.27;0.93;;;;;;;18.32;42.55;103129.72;5126466;27;20027;-45
2022/04/28 10:34:29;;;;;;;1.33;0.80;;;;;;;18.31;42.76;103122.56;5147224;27;20038;-45
2022/04/28 10:36:58;;;;;;;1.08;0.98;;;;;;;18.34;42.89;103130.44;5125255;27;20023;-45
2022/04/28 10:39:44;;;;;;;1.33;0.80;;;;;;;18.35;42.74;103132.16;5125662;27;20019;-48
2022/04/28 10:42:15;;;;;;;1.30;0.90;;;;;;;18.36;42.93;103120.44;5125596;27;20047;-47
2022/04/28 10:44:51;;;;;;;0.93;0.90;;;;;;;18.37;42.88;103124.84;5126130;27;20027;-48
2022/04/28 10:47:34;;;;;;;2.03;0.93;;;;;;;18.37;42.68;103120.31;5123065;27;20035;-44
2022/04/28 10:49:59;;;;;;;1.00;0.90;;;;;;;18.37;42.62;103116.75;5108784;27;20022;-46
2022/04/28 10:52:25;;;;;;;0.88;0.80;;;;;;;18.38;43.01;103118.47;5144098;27;20046;-45
2022/04/28 10:54:53;;;;;;;1.20;0.95;;;;;;;18.41;43.00;103127.19;5143796;27;20495;-46
2022/04/28 10:57:19;;;;;;;1.65;1.00;;;;;;;18.41;43.19;103127.19;5124073;27;20495;-46
2022/04/28 10:59:48;;;;;;;1.42;0.85;;;;;;;18.41;43.28;103118.25;5125701;27;20044;-45
2022/04/28 11:02:14;;;;;;;0.80;0.80;;;;;;;18.42;43.28;103117.28;5125822;27;20022;-45
2022/04/28 11:04:40;;;;;;;1.45;1.00;;;;;;;18.45;43.15;103117.06;5125851;27;20031;-48
2022/04/28 11:07:08;;;;;;;2.35;1.00;;;;;;;18.45;43.33;103115.22;5143674;27;20038;-47
2022/04/28 11:09:35;;;;;;;1.17;0.93;;;;;;;18.47;43.22;103117.81;5125139;27;20023;-44
2022/04/28 11:12:08;;;;;;;1.52;1.05;;;;;;;18.48;43.46;103120.41;5143360;27;20019;-46
2022/04/28 11:15:02;;;;;;;1.23;0.90;;;;;;;18.49;43.38;103116.72;5124968;27;20050;-48
2022/04/28 11:17:29;;;;;;;1.20;0.88;;;;;;;18.49;43.31;103115.88;5124773;27;20055;-47
2022/04/28 11:19:55;;;;;;;2.10;1.10;;;;;;;18.41;43.32;103102.97;5143804;27;20050;-45
2022/04/28 11:22:23;;;;;;;0.70;0.70;;;;;;;18.43;43.39;103103.69;5143609;27;20026;-46
2022/04/28 11:24:49;;;;;;;1.13;1.00;;;;;;;18.43;43.29;103103.69;5125276;27;20081;-48
2022/04/28 11:27:34;;;;;;;1.02;0.93;;;;;;;18.56;43.32;103117.13;5124361;27;20042;-45
2022/04/28 11:30:01;;;;;;;1.38;0.98;;;;;;;18.55;43.21;103098.38;5122369;27;20046;-46
2022/04/28 11:32:26;;;;;;;1.45;1.00;;;;;;;18.55;43.29;103107.31;5143391;27;20023;-44
2022/04/28 11:34:52;;;;;;;1.77;0.90;;;;;;;18.58;43.21;103106.25;5143262;27;20031;-44
2022/04/28 11:37:19;;;;;;;1.80;1.08;;;;;;;18.60;43.35;103104.28;5142295;27;20038;-48
2022/04/28 11:39:45;;;;;;;0.80;0.80;;;;;;;18.49;43.30;103078.16;5123745;27;20439;-45
2022/04/28 11:42:16;;;;;;;1.10;0.90;;;;;;;18.62;43.20;103103.22;5124272;27;20416;-47
2022/04/28 11:44:53;;;;;;;1.27;0.98;;;;;;;18.64;43.29;103103.94;5125710;27;20038;-46
2022/04/28 11:47:19;;;;;;;1.40;1.00;;;;;;;18.62;43.64;103096.97;5124263;27;20102;-45
2022/04/28 11:49:44;;;;;;;0.98;0.90;;;;;;;18.64;43.60;103101.25;5125047;27;20070;-44
2022/04/28 11:52:24;;;;;;;1.13;1.02;;;;;;;18.66;43.38;103103.84;5124869;27;20495;-45
2022/04/28 11:55:03;;;;;;;1.13;1.00;;;;;;;18.67;43.56;103102.88;5107796;27;20030;-44
2022/04/28 11:57:28;;;;;;;2.05;1.08;;;;;;;18.66;43.47;103098.47;5106663;27;20514;-45
2022/04/28 11:59:54;;;;;;;2.33;1.08;;;;;;;18.66;43.75;103101.16;5124398;27;20023;-47